Manahawkin, New Jersey
Current Conditions -  °F | °C
As of 7:15 PM on Wednesday 22 Oct 2014 (Local Time) from KMJX Reporting Station
Overcast Overcast  
Wind Chill: 52°   Ceiling: 1800
Heat Index: 52°   Visibility: 7mi
Dew Point: 50°   Wind: 9mph
Humidity: 94%   Direction: 350°N
Pressure: 29.79"   Gusts: 18mph
Location:  39.7°N, 74.25°W
Report Text: KMJX 222315Z AUTO 35008G16KT 7SM FEW011 OVC018 11/10 A2979 RMK AO1
Loading
Personal Weather Stations






























Interactive Weather Map New forecast layout! Learn more

10-Day Weather Forecast

Advertisements
Track Severe Weather on mobile